createdAt,value
2022-12-23T00:15:59.651Z,1015.68
2022-12-23T00:30:59.606Z,1015.65
2022-12-23T00:45:59.779Z,1015.72
2022-12-23T00:59:59.573Z,1015.72
2022-12-23T01:15:59.646Z,1015.85
2022-12-23T01:30:59.583Z,1015.89
2022-12-23T01:45:59.755Z,1015.82
2022-12-23T01:59:59.636Z,1015.45
2022-12-23T02:15:59.559Z,1015.58
2022-12-23T02:30:59.641Z,1015.41
2022-12-23T02:45:59.682Z,1015.38
2022-12-23T02:59:59.578Z,1014.87
2022-12-23T03:15:59.666Z,1014.97
2022-12-23T03:30:59.653Z,1014.97
2022-12-23T03:45:59.707Z,1014.9
2022-12-23T03:59:59.624Z,1014.33
2022-12-23T04:15:59.701Z,1014.6
2022-12-23T04:30:59.872Z,1014.29
2022-12-23T04:45:59.616Z,1014.6
2022-12-23T04:59:59.886Z,1014.46
2022-12-23T05:15:59.684Z,1014.84
2022-12-23T05:30:59.627Z,1014.87
2022-12-23T05:45:59.725Z,1014.77
2022-12-23T05:59:59.602Z,1014.77
2022-12-23T06:15:59.624Z,1014.63
2022-12-23T06:30:59.635Z,1014.57
2022-12-23T06:46:10.971Z,1014.8
2022-12-23T06:59:59.684Z,1014.67
2022-12-23T07:15:59.680Z,1014.8
2022-12-23T07:30:59.679Z,1014.87
2022-12-23T07:46:01.310Z,1015.24
2022-12-23T08:00:00.597Z,1015.17
2022-12-23T08:15:59.650Z,1015.24
2022-12-23T08:30:59.672Z,1015.04
2022-12-23T08:45:59.677Z,1015.34
2022-12-23T08:59:59.682Z,1015.45
2022-12-23T09:15:59.713Z,1015.17
2022-12-23T09:30:59.750Z,1015.01
2022-12-23T09:46:00.117Z,1015.04
2022-12-23T09:59:59.694Z,1014.7
2022-12-23T10:15:59.841Z,1014.43
2022-12-23T10:31:23.731Z,1015.11
2022-12-23T10:45:59.783Z,1014.94
2022-12-23T10:59:59.707Z,1014.57
2022-12-23T11:16:02.190Z,1014.29
2022-12-23T11:30:59.749Z,1014.19
2022-12-23T11:45:59.873Z,1013.96
2022-12-23T11:59:59.709Z,1013.96
2022-12-23T12:15:59.730Z,1013.82
2022-12-23T12:30:59.749Z,1013.82
2022-12-23T12:45:59.761Z,1013.52
2022-12-23T13:00:05.571Z,1013.65
2022-12-23T13:15:59.748Z,1013.72
2022-12-23T13:30:59.799Z,1013.62
2022-12-23T13:45:59.802Z,1013.65
2022-12-23T14:00:04.905Z,1013.82
2022-12-23T14:15:59.866Z,1013.75
2022-12-23T14:30:59.757Z,1013.52
2022-12-23T14:45:59.890Z,1013.48
2022-12-23T14:59:59.755Z,1013.38
2022-12-23T15:16:02.109Z,1013.62
2022-12-23T15:31:01.130Z,1013.75
2022-12-23T15:46:00.179Z,1013.79
2022-12-23T15:59:59.793Z,1013.58
2022-12-23T16:15:59.907Z,1013.72
2022-12-23T16:30:59.780Z,1013.72
2022-12-23T16:46:00.135Z,1013.75
2022-12-23T16:59:59.884Z,1013.85
2022-12-23T17:15:59.925Z,1013.82
2022-12-23T17:30:59.951Z,1014.02
2022-12-23T17:45:59.887Z,1014.33
2022-12-23T18:00:04.866Z,1014.19
2022-12-23T18:16:04.860Z,1014.13
2022-12-23T18:31:05.173Z,1014.16
2022-12-23T18:46:04.867Z,1014.19
2022-12-23T19:00:05.132Z,1014.23
2022-12-23T19:16:04.855Z,1014.16
2022-12-23T19:31:04.863Z,1014.33
2022-12-23T19:46:05.065Z,1014.23
2022-12-23T20:00:04.912Z,1014.33
2022-12-23T20:16:04.928Z,1014.6
2022-12-23T20:31:04.842Z,1014.6
2022-12-23T20:46:04.915Z,1014.09
2022-12-23T21:00:04.918Z,1013.99
2022-12-23T21:16:04.883Z,1013.99
2022-12-23T21:31:04.901Z,1014.19
2022-12-23T21:46:04.900Z,1014.13
2022-12-23T22:00:04.886Z,1014.13
2022-12-23T22:16:04.957Z,1014.06
2022-12-23T22:31:05.003Z,1013.72
2022-12-23T22:46:05.887Z,1014.23
2022-12-23T23:00:11.640Z,1013.99
2022-12-23T23:16:05.022Z,1014.13
2022-12-23T23:31:39.955Z,1014.02
2022-12-23T23:46:05.008Z,1014.23
